sensor_id;sensor_type;location;lat;lon;timestamp;temperature;humidity
25568;DHT22;13455;51.480;7.594;2023-06-22T00:00:02;22.60;99.90
25568;DHT22;13455;51.480;7.594;2023-06-22T00:02:34;22.60;99.90
25568;DHT22;13455;51.480;7.594;2023-06-22T00:04:59;22.60;99.90
25568;DHT22;13455;51.480;7.594;2023-06-22T00:07:25;22.60;99.90
25568;DHT22;13455;51.480;7.594;2023-06-22T00:09:50;22.50;99.90
25568;DHT22;13455;51.480;7.594;2023-06-22T00:12:16;23.20;99.90
25568;DHT22;13455;51.480;7.594;2023-06-22T00:14:42;22.50;99.90
25568;DHT22;13455;51.480;7.594;2023-06-22T00:17:07;22.50;99.90
25568;DHT22;13455;51.480;7.594;2023-06-22T00:19:33;22.40;99.90
25568;DHT22;13455;51.480;7.594;2023-06-22T00:22:00;22.40;99.90
25568;DHT22;13455;51.480;7.594;2023-06-22T00:24:28;22.30;99.90
25568;DHT22;13455;51.480;7.594;2023-06-22T00:26:54;22.40;99.90
25568;DHT22;13455;51.480;7.594;2023-06-22T00:29:19;22.30;99.90
25568;DHT22;13455;51.480;7.594;2023-06-22T00:31:45;22.30;99.90
25568;DHT22;13455;51.480;7.594;2023-06-22T00:34:11;22.40;99.90
25568;DHT22;13455;51.480;7.594;2023-06-22T01:55:47;21.40;99.90
25568;DHT22;13455;51.480;7.594;2023-06-22T01:58:13;21.50;99.90
25568;DHT22;13455;51.480;7.594;2023-06-22T02:00:41;21.30;99.90
25568;DHT22;13455;51.480;7.594;2023-06-22T02:03:13;21.30;99.90
25568;DHT22;13455;51.480;7.594;2023-06-22T02:05:52;21.30;99.90
25568;DHT22;13455;51.480;7.594;2023-06-22T02:08:33;21.30;99.90
25568;DHT22;13455;51.480;7.594;2023-06-22T02:11:00;21.30;99.90
25568;DHT22;13455;51.480;7.594;2023-06-22T02:13:27;21.20;99.90
25568;DHT22;13455;51.480;7.594;2023-06-22T02:15:53;21.20;99.90
25568;DHT22;13455;51.480;7.594;2023-06-22T02:18:19;21.20;99.90
25568;DHT22;13455;51.480;7.594;2023-06-22T02:20:46;21.20;99.90
25568;DHT22;13455;51.480;7.594;2023-06-22T02:23:11;21.20;99.90
25568;DHT22;13455;51.480;7.594;2023-06-22T02:25:37;21.10;99.90
25568;DHT22;13455;51.480;7.594;2023-06-22T02:28:03;21.20;99.90
25568;DHT22;13455;51.480;7.594;2023-06-22T02:30:29;21.10;99.90
25568;DHT22;13455;51.480;7.594;2023-06-22T02:32:54;21.10;99.90
25568;DHT22;13455;51.480;7.594;2023-06-22T02:35:26;21.20;99.90
25568;DHT22;13455;51.480;7.594;2023-06-22T02:37:51;21.10;99.90
25568;DHT22;13455;51.480;7.594;2023-06-22T02:42:43;21.20;99.90
25568;DHT22;13455;51.480;7.594;2023-06-22T02:45:09;21.40;99.90
25568;DHT22;13455;51.480;7.594;2023-06-22T03:41:11;20.70;99.90
25568;DHT22;13455;51.480;7.594;2023-06-22T03:43:37;20.70;99.90
25568;DHT22;13455;51.480;7.594;2023-06-22T03:46:03;20.60;99.90
25568;DHT22;13455;51.480;7.594;2023-06-22T03:48:28;20.60;99.90
25568;DHT22;13455;51.480;7.594;2023-06-22T03:50:54;20.50;99.90
25568;DHT22;13455;51.480;7.594;2023-06-22T03:53:19;20.50;99.90
25568;DHT22;13455;51.480;7.594;2023-06-22T05:21:30;21.30;99.90
25568;DHT22;13455;51.480;7.594;2023-06-22T05:26:26;20.10;99.90
25568;DHT22;13455;51.480;7.594;2023-06-22T05:28:52;20.40;99.90
25568;DHT22;13455;51.480;7.594;2023-06-22T05:38:41;20.00;99.90
25568;DHT22;13455;51.480;7.594;2023-06-22T05:41:07;20.00;99.90
25568;DHT22;13455;51.480;7.594;2023-06-22T05:46:00;19.90;99.90
25568;DHT22;13455;51.480;7.594;2023-06-22T05:48:26;19.90;99.90
25568;DHT22;13455;51.480;7.594;2023-06-22T05:50:52;20.00;99.90
25568;DHT22;13455;51.480;7.594;2023-06-22T05:53:17;20.00;99.90
25568;DHT22;13455;51.480;7.594;2023-06-22T05:55:43;20.00;99.90
25568;DHT22;13455;51.480;7.594;2023-06-22T05:58:09;20.00;99.90
25568;DHT22;13455;51.480;7.594;2023-06-22T06:00:35;20.00;99.90
25568;DHT22;13455;51.480;7.594;2023-06-22T06:03:01;20.00;99.90
25568;DHT22;13455;51.480;7.594;2023-06-22T06:05:32;20.20;99.90
25568;DHT22;13455;51.480;7.594;2023-06-22T06:08:01;20.10;99.90
25568;DHT22;13455;51.480;7.594;2023-06-22T06:10:27;20.10;99.90
25568;DHT22;13455;51.480;7.594;2023-06-22T06:12:55;20.20;99.90
25568;DHT22;13455;51.480;7.594;2023-06-22T06:17:51;20.20;99.90
25568;DHT22;13455;51.480;7.594;2023-06-22T06:20:24;20.10;99.90
25568;DHT22;13455;51.480;7.594;2023-06-22T06:22:50;20.10;99.90
25568;DHT22;13455;51.480;7.594;2023-06-22T06:25:16;20.00;99.90
25568;DHT22;13455;51.480;7.594;2023-06-22T06:27:45;20.00;99.90
25568;DHT22;13455;51.480;7.594;2023-06-22T06:30:12;20.00;99.90
25568;DHT22;13455;51.480;7.594;2023-06-22T06:32:39;20.10;99.90
25568;DHT22;13455;51.480;7.594;2023-06-22T06:35:08;20.10;99.90
25568;DHT22;13455;51.480;7.594;2023-06-22T06:37:36;20.10;99.90
25568;DHT22;13455;51.480;7.594;2023-06-22T06:40:04;20.10;99.90
25568;DHT22;13455;51.480;7.594;2023-06-22T06:42:31;20.30;99.90
25568;DHT22;13455;51.480;7.594;2023-06-22T06:44:56;20.60;99.90
25568;DHT22;13455;51.480;7.594;2023-06-22T06:47:22;20.40;99.90
25568;DHT22;13455;51.480;7.594;2023-06-22T06:49:48;20.40;99.90
25568;DHT22;13455;51.480;7.594;2023-06-22T06:52:13;20.60;99.90
25568;DHT22;13455;51.480;7.594;2023-06-22T06:54:39;20.70;99.90
25568;DHT22;13455;51.480;7.594;2023-06-22T06:57:04;20.90;99.90
25568;DHT22;13455;51.480;7.594;2023-06-22T06:59:30;21.00;99.90
25568;DHT22;13455;51.480;7.594;2023-06-22T07:01:55;21.10;99.90
25568;DHT22;13455;51.480;7.594;2023-06-22T07:04:21;21.10;99.90
25568;DHT22;13455;51.480;7.594;2023-06-22T07:06:47;21.30;99.90
25568;DHT22;13455;51.480;7.594;2023-06-22T07:09:12;21.30;99.90
25568;DHT22;13455;51.480;7.594;2023-06-22T07:11:38;21.40;99.90
25568;DHT22;13455;51.480;7.594;2023-06-22T07:14:03;21.50;99.90
25568;DHT22;13455;51.480;7.594;2023-06-22T07:16:29;21.60;99.90
25568;DHT22;13455;51.480;7.594;2023-06-22T07:18:56;21.60;99.90
25568;DHT22;13455;51.480;7.594;2023-06-22T07:21:22;21.60;99.90
25568;DHT22;13455;51.480;7.594;2023-06-22T07:23:47;21.70;99.90
25568;DHT22;13455;51.480;7.594;2023-06-22T07:26:13;21.70;99.90
25568;DHT22;13455;51.480;7.594;2023-06-22T07:28:39;21.70;99.90
25568;DHT22;13455;51.480;7.594;2023-06-22T07:31:06;21.70;99.90
25568;DHT22;13455;51.480;7.594;2023-06-22T07:33:32;21.80;99.90
25568;DHT22;13455;51.480;7.594;2023-06-22T07:35:57;21.80;99.90
25568;DHT22;13455;51.480;7.594;2023-06-22T07:38:23;21.80;99.90
25568;DHT22;13455;51.480;7.594;2023-06-22T07:40:49;21.90;99.90
25568;DHT22;13455;51.480;7.594;2023-06-22T07:43:16;21.90;99.90
25568;DHT22;13455;51.480;7.594;2023-06-22T07:45:48;21.90;99.90
25568;DHT22;13455;51.480;7.594;2023-06-22T07:48:19;21.90;99.90
25568;DHT22;13455;51.480;7.594;2023-06-22T07:50:45;22.00;99.90
25568;DHT22;13455;51.480;7.594;2023-06-22T07:53:10;22.00;99.90
25568;DHT22;13455;51.480;7.594;2023-06-22T07:55:36;22.10;99.90
25568;DHT22;13455;51.480;7.594;2023-06-22T07:58:01;22.10;99.90
25568;DHT22;13455;51.480;7.594;2023-06-22T08:00:27;22.20;99.90
25568;DHT22;13455;51.480;7.594;2023-06-22T08:02:53;22.20;99.90
25568;DHT22;13455;51.480;7.594;2023-06-22T08:05:19;22.30;99.90
25568;DHT22;13455;51.480;7.594;2023-06-22T08:07:44;22.30;99.90
25568;DHT22;13455;51.480;7.594;2023-06-22T08:10:11;22.40;99.90
25568;DHT22;13455;51.480;7.594;2023-06-22T08:12:37;22.50;99.90
25568;DHT22;13455;51.480;7.594;2023-06-22T08:15:03;22.50;99.90
25568;DHT22;13455;51.480;7.594;2023-06-22T08:17:28;22.60;99.90
25568;DHT22;13455;51.480;7.594;2023-06-22T08:19:54;22.70;99.90
25568;DHT22;13455;51.480;7.594;2023-06-22T08:22:19;22.80;99.90
25568;DHT22;13455;51.480;7.594;2023-06-22T08:24:45;23.00;99.90
25568;DHT22;13455;51.480;7.594;2023-06-22T08:27:11;23.10;99.90
25568;DHT22;13455;51.480;7.594;2023-06-22T08:29:46;23.20;99.90
25568;DHT22;13455;51.480;7.594;2023-06-22T08:32:12;23.30;99.90
25568;DHT22;13455;51.480;7.594;2023-06-22T08:34:38;23.50;99.90
25568;DHT22;13455;51.480;7.594;2023-06-22T08:37:08;23.60;99.90
25568;DHT22;13455;51.480;7.594;2023-06-22T08:42:00;24.10;99.90
25568;DHT22;13455;51.480;7.594;2023-06-22T08:56:37;25.20;99.90
25568;DHT22;13455;51.480;7.594;2023-06-22T08:59:02;25.30;99.90
25568;DHT22;13455;51.480;7.594;2023-06-22T09:01:28;25.40;99.90
25568;DHT22;13455;51.480;7.594;2023-06-22T09:03:53;25.50;99.90
25568;DHT22;13455;51.480;7.594;2023-06-22T09:08:49;25.90;99.90
25568;DHT22;13455;51.480;7.594;2023-06-22T09:11:15;26.00;99.90
25568;DHT22;13455;51.480;7.594;2023-06-22T09:13:41;26.20;99.90
25568;DHT22;13455;51.480;7.594;2023-06-22T09:16:06;26.30;99.90
25568;DHT22;13455;51.480;7.594;2023-06-22T09:18:34;26.50;99.90
25568;DHT22;13455;51.480;7.594;2023-06-22T09:20:59;26.60;99.90
25568;DHT22;13455;51.480;7.594;2023-06-22T09:23:25;26.60;99.90
25568;DHT22;13455;51.480;7.594;2023-06-22T09:25:51;26.70;99.90
25568;DHT22;13455;51.480;7.594;2023-06-22T09:28:16;26.90;99.90
25568;DHT22;13455;51.480;7.594;2023-06-22T09:30:45;27.10;99.90
25568;DHT22;13455;51.480;7.594;2023-06-22T09:33:11;27.30;99.90
25568;DHT22;13455;51.480;7.594;2023-06-22T09:35:36;27.40;99.90
25568;DHT22;13455;51.480;7.594;2023-06-22T09:38:02;27.60;99.90
25568;DHT22;13455;51.480;7.594;2023-06-22T09:40:27;27.80;99.90
25568;DHT22;13455;51.480;7.594;2023-06-22T09:42:53;28.00;99.90
25568;DHT22;13455;51.480;7.594;2023-06-22T09:45:19;28.20;99.90
25568;DHT22;13455;51.480;7.594;2023-06-22T09:47:45;28.40;99.90
25568;DHT22;13455;51.480;7.594;2023-06-22T09:50:10;28.40;99.90
25568;DHT22;13455;51.480;7.594;2023-06-22T09:52:36;28.60;99.90
25568;DHT22;13455;51.480;7.594;2023-06-22T09:55:02;28.50;99.90
25568;DHT22;13455;51.480;7.594;2023-06-22T09:57:29;28.50;99.90
25568;DHT22;13455;51.480;7.594;2023-06-22T09:59:55;28.50;99.90
25568;DHT22;13455;51.480;7.594;2023-06-22T10:02:21;28.50;99.90
25568;DHT22;13455;51.480;7.594;2023-06-22T10:04:47;28.60;99.90
25568;DHT22;13455;51.480;7.594;2023-06-22T10:07:13;28.60;99.90
25568;DHT22;13455;51.480;7.594;2023-06-22T10:09:39;28.60;99.90
25568;DHT22;13455;51.480;7.594;2023-06-22T10:12:05;28.70;99.90
25568;DHT22;13455;51.480;7.594;2023-06-22T10:14:31;28.70;99.90
25568;DHT22;13455;51.480;7.594;2023-06-22T10:16:56;28.80;99.90
25568;DHT22;13455;51.480;7.594;2023-06-22T10:19:22;28.90;99.90
25568;DHT22;13455;51.480;7.594;2023-06-22T10:21:47;28.90;99.90
25568;DHT22;13455;51.480;7.594;2023-06-22T10:24:13;28.90;99.90
25568;DHT22;13455;51.480;7.594;2023-06-22T10:26:39;29.00;99.90
25568;DHT22;13455;51.480;7.594;2023-06-22T10:33:57;29.40;99.90
25568;DHT22;13455;51.480;7.594;2023-06-22T10:38:49;29.60;99.90
25568;DHT22;13455;51.480;7.594;2023-06-22T10:48:33;29.40;99.90
25568;DHT22;13455;51.480;7.594;2023-06-22T10:50:59;29.30;99.90
25568;DHT22;13455;51.480;7.594;2023-06-22T10:53:25;29.30;99.90
25568;DHT22;13455;51.480;7.594;2023-06-22T10:55:50;29.30;99.90
25568;DHT22;13455;51.480;7.594;2023-06-22T10:58:18;29.50;99.90
25568;DHT22;13455;51.480;7.594;2023-06-22T11:08:02;29.20;99.90
25568;DHT22;13455;51.480;7.594;2023-06-22T11:10:28;29.00;99.90
25568;DHT22;13455;51.480;7.594;2023-06-22T11:12:53;28.90;99.90
25568;DHT22;13455;51.480;7.594;2023-06-22T11:20:12;28.60;99.90
25568;DHT22;13455;51.480;7.594;2023-06-22T11:22:39;28.50;99.90
25568;DHT22;13455;51.480;7.594;2023-06-22T11:25:05;28.40;99.90
25568;DHT22;13455;51.480;7.594;2023-06-22T11:27:31;28.40;99.90
25568;DHT22;13455;51.480;7.594;2023-06-22T11:29:57;28.40;99.90
25568;DHT22;13455;51.480;7.594;2023-06-22T11:32:23;28.30;99.90
25568;DHT22;13455;51.480;7.594;2023-06-22T11:34:49;28.20;99.90
25568;DHT22;13455;51.480;7.594;2023-06-22T11:37:14;28.10;99.90
25568;DHT22;13455;51.480;7.594;2023-06-22T11:39:41;27.90;99.90
25568;DHT22;13455;51.480;7.594;2023-06-22T11:42:07;27.80;99.90
25568;DHT22;13455;51.480;7.594;2023-06-22T11:46:59;27.40;99.90
25568;DHT22;13455;51.480;7.594;2023-06-22T11:49:29;27.30;99.90
25568;DHT22;13455;51.480;7.594;2023-06-22T11:51:55;27.10;99.90
25568;DHT22;13455;51.480;7.594;2023-06-22T11:54:20;26.90;99.90
25568;DHT22;13455;51.480;7.594;2023-06-22T12:04:06;26.40;99.90
25568;DHT22;13455;51.480;7.594;2023-06-22T12:06:32;26.40;99.90
25568;DHT22;13455;51.480;7.594;2023-06-22T12:08:58;26.30;99.90
25568;DHT22;13455;51.480;7.594;2023-06-22T12:11:24;26.30;99.90
25568;DHT22;13455;51.480;7.594;2023-06-22T12:23:33;25.80;99.90
25568;DHT22;13455;51.480;7.594;2023-06-22T12:28:26;25.60;99.90
25568;DHT22;13455;51.480;7.594;2023-06-22T12:30:52;25.60;99.90
25568;DHT22;13455;51.480;7.594;2023-06-22T14:06:16;26.60;99.90
25568;DHT22;13455;51.480;7.594;2023-06-22T14:08:42;26.50;99.90
25568;DHT22;13455;51.480;7.594;2023-06-22T14:11:08;26.40;99.90
25568;DHT22;13455;51.480;7.594;2023-06-22T14:13:33;26.40;99.90
25568;DHT22;13455;51.480;7.594;2023-06-22T14:16:01;26.40;99.90
25568;DHT22;13455;51.480;7.594;2023-06-22T14:18:26;26.30;99.90
25568;DHT22;13455;51.480;7.594;2023-06-22T14:20:52;26.30;99.90
25568;DHT22;13455;51.480;7.594;2023-06-22T14:23:18;26.40;99.90
25568;DHT22;13455;51.480;7.594;2023-06-22T14:25:43;26.40;99.90
25568;DHT22;13455;51.480;7.594;2023-06-22T14:28:09;26.50;99.90
25568;DHT22;13455;51.480;7.594;2023-06-22T14:30:34;26.80;99.90
25568;DHT22;13455;51.480;7.594;2023-06-22T14:35:26;27.50;99.90
25568;DHT22;13455;51.480;7.594;2023-06-22T14:57:21;26.60;99.90
25568;DHT22;13455;51.480;7.594;2023-06-22T14:59:51;26.50;99.90
25568;DHT22;13455;51.480;7.594;2023-06-22T15:02:17;26.40;99.90
25568;DHT22;13455;51.480;7.594;2023-06-22T15:04:42;26.40;99.90
25568;DHT22;13455;51.480;7.594;2023-06-22T15:07:08;26.30;99.90
25568;DHT22;13455;51.480;7.594;2023-06-22T15:09:34;26.20;99.90
25568;DHT22;13455;51.480;7.594;2023-06-22T15:11:59;26.30;99.90
25568;DHT22;13455;51.480;7.594;2023-06-22T15:14:27;26.30;99.90
25568;DHT22;13455;51.480;7.594;2023-06-22T15:16:53;26.30;99.90
25568;DHT22;13455;51.480;7.594;2023-06-22T15:19:18;26.10;99.90
25568;DHT22;13455;51.480;7.594;2023-06-22T15:21:44;25.80;99.90
25568;DHT22;13455;51.480;7.594;2023-06-22T15:24:11;25.90;99.90
25568;DHT22;13455;51.480;7.594;2023-06-22T15:26:36;25.70;99.90
25568;DHT22;13455;51.480;7.594;2023-06-22T15:31:29;25.40;99.90
25568;DHT22;13455;51.480;7.594;2023-06-22T15:33:54;25.20;99.90
25568;DHT22;13455;51.480;7.594;2023-06-22T15:36:20;25.10;99.90
25568;DHT22;13455;51.480;7.594;2023-06-22T15:38:46;25.00;99.90
25568;DHT22;13455;51.480;7.594;2023-06-22T15:41:15;24.90;99.90
25568;DHT22;13455;51.480;7.594;2023-06-22T15:43:40;24.80;99.90
25568;DHT22;13455;51.480;7.594;2023-06-22T15:46:06;24.70;99.90
25568;DHT22;13455;51.480;7.594;2023-06-22T15:48:31;24.70;99.90
25568;DHT22;13455;51.480;7.594;2023-06-22T15:50:57;24.60;99.90
25568;DHT22;13455;51.480;7.594;2023-06-22T15:53:22;24.50;99.90
25568;DHT22;13455;51.480;7.594;2023-06-22T16:17:45;23.80;99.90
25568;DHT22;13455;51.480;7.594;2023-06-22T16:27:29;22.90;99.90
25568;DHT22;13455;51.480;7.594;2023-06-22T16:49:27;22.10;99.90
25568;DHT22;13455;51.480;7.594;2023-06-22T16:51:53;22.10;99.90
25568;DHT22;13455;51.480;7.594;2023-06-22T17:06:42;21.90;99.90
25568;DHT22;13455;51.480;7.594;2023-06-22T17:09:11;21.80;99.90
25568;DHT22;13455;51.480;7.594;2023-06-22T17:58:28;21.50;99.90
25568;DHT22;13455;51.480;7.594;2023-06-22T18:00:54;21.50;99.90
25568;DHT22;13455;51.480;7.594;2023-06-22T18:03:24;21.50;99.90
25568;DHT22;13455;51.480;7.594;2023-06-22T18:05:49;21.50;99.90
25568;DHT22;13455;51.480;7.594;2023-06-22T18:08:17;21.50;99.90
25568;DHT22;13455;51.480;7.594;2023-06-22T18:10:48;21.40;99.90
25568;DHT22;13455;51.480;7.594;2023-06-22T18:13:14;21.40;99.90
25568;DHT22;13455;51.480;7.594;2023-06-22T18:15:40;21.50;99.90
25568;DHT22;13455;51.480;7.594;2023-06-22T18:18:07;21.40;99.90
25568;DHT22;13455;51.480;7.594;2023-06-22T18:20:34;21.40;99.90
25568;DHT22;13455;51.480;7.594;2023-06-22T18:23:01;21.30;99.90
25568;DHT22;13455;51.480;7.594;2023-06-22T18:25:31;21.20;99.90
25568;DHT22;13455;51.480;7.594;2023-06-22T18:27:59;21.20;99.90
25568;DHT22;13455;51.480;7.594;2023-06-22T18:30:24;20.90;99.90
25568;DHT22;13455;51.480;7.594;2023-06-22T18:32:51;21.10;99.90
25568;DHT22;13455;51.480;7.594;2023-06-22T18:35:17;21.40;99.90
25568;DHT22;13455;51.480;7.594;2023-06-22T18:37:43;21.10;99.90
25568;DHT22;13455;51.480;7.594;2023-06-22T18:40:10;21.00;99.90
25568;DHT22;13455;51.480;7.594;2023-06-22T18:42:44;21.00;99.90
25568;DHT22;13455;51.480;7.594;2023-06-22T18:45:40;21.00;99.90
25568;DHT22;13455;51.480;7.594;2023-06-22T18:48:05;20.90;99.90
25568;DHT22;13455;51.480;7.594;2023-06-22T18:53:11;20.90;99.90
25568;DHT22;13455;51.480;7.594;2023-06-22T18:55:41;20.80;99.90
25568;DHT22;13455;51.480;7.594;2023-06-22T18:58:22;20.80;99.90
25568;DHT22;13455;51.480;7.594;2023-06-22T19:00:53;20.70;99.90
25568;DHT22;13455;51.480;7.594;2023-06-22T19:03:37;20.60;99.90
25568;DHT22;13455;51.480;7.594;2023-06-22T19:06:03;20.50;99.90
25568;DHT22;13455;51.480;7.594;2023-06-22T19:11:32;20.30;99.90
25568;DHT22;13455;51.480;7.594;2023-06-22T19:13:59;20.20;99.90
25568;DHT22;13455;51.480;7.594;2023-06-22T19:16:29;20.20;99.90
25568;DHT22;13455;51.480;7.594;2023-06-22T19:18:54;20.20;99.90
25568;DHT22;13455;51.480;7.594;2023-06-22T19:21:22;20.10;99.90
25568;DHT22;13455;51.480;7.594;2023-06-22T19:23:48;20.10;99.90
25568;DHT22;13455;51.480;7.594;2023-06-22T19:26:16;20.00;99.90
25568;DHT22;13455;51.480;7.594;2023-06-22T19:28:52;19.90;99.90
25568;DHT22;13455;51.480;7.594;2023-06-22T19:31:19;19.90;99.90
25568;DHT22;13455;51.480;7.594;2023-06-22T19:33:45;19.90;99.90
25568;DHT22;13455;51.480;7.594;2023-06-22T19:36:11;19.90;99.90
25568;DHT22;13455;51.480;7.594;2023-06-22T19:38:40;19.90;99.90
25568;DHT22;13455;51.480;7.594;2023-06-22T19:41:09;19.90;99.90
25568;DHT22;13455;51.480;7.594;2023-06-22T19:43:35;19.90;99.90
25568;DHT22;13455;51.480;7.594;2023-06-22T19:46:01;19.90;99.90
25568;DHT22;13455;51.480;7.594;2023-06-22T19:48:28;19.90;99.90
25568;DHT22;13455;51.480;7.594;2023-06-22T19:50:55;19.90;99.90
25568;DHT22;13455;51.480;7.594;2023-06-22T19:53:21;20.00;99.90
25568;DHT22;13455;51.480;7.594;2023-06-22T19:55:48;19.90;99.90
25568;DHT22;13455;51.480;7.594;2023-06-22T19:58:15;20.00;99.90
25568;DHT22;13455;51.480;7.594;2023-06-22T20:00:42;19.90;99.90
25568;DHT22;13455;51.480;7.594;2023-06-22T20:03:17;19.90;99.90
25568;DHT22;13455;51.480;7.594;2023-06-22T20:05:47;19.90;99.90
25568;DHT22;13455;51.480;7.594;2023-06-22T20:08:15;19.90;99.90
25568;DHT22;13455;51.480;7.594;2023-06-22T20:10:42;19.90;99.90
25568;DHT22;13455;51.480;7.594;2023-06-22T20:13:20;19.80;99.90
25568;DHT22;13455;51.480;7.594;2023-06-22T20:15:46;19.80;99.90
25568;DHT22;13455;51.480;7.594;2023-06-22T23:34:23;16.60;99.90
25568;DHT22;13455;51.480;7.594;2023-06-22T23:36:49;16.40;99.90
25568;DHT22;13455;51.480;7.594;2023-06-22T23:39:15;16.40;99.90
25568;DHT22;13455;51.480;7.594;2023-06-22T23:41:42;16.40;99.90
25568;DHT22;13455;51.480;7.594;2023-06-22T23:44:08;16.50;99.90
25568;DHT22;13455;51.480;7.594;2023-06-22T23:46:34;16.20;99.90
